createdAt,value
2019-01-14T00:01:40.146Z,985.82
2019-01-14T00:02:39.961Z,985.88
2019-01-14T00:03:41.418Z,985.94
2019-01-14T00:04:41.450Z,985.97
2019-01-14T00:05:42.116Z,985.91
2019-01-14T00:06:42.494Z,985.96
2019-01-14T00:07:41.974Z,985.99
2019-01-14T00:08:39.610Z,986.06
2019-01-14T00:09:50.933Z,986.14
2019-01-14T00:11:11.955Z,986.09
2019-01-14T00:11:56.108Z,986.05
2019-01-14T00:12:51.926Z,986.16
2019-01-14T00:13:44.775Z,986.07
2019-01-14T00:14:56.820Z,986.17
2019-01-14T00:15:42.066Z,986.12
2019-01-14T00:16:41.658Z,986.21
2019-01-14T00:19:46.256Z,986.31
2019-01-14T00:20:52.967Z,986.42
2019-01-14T00:21:49.623Z,986.36
2019-01-14T00:22:46.851Z,986.41
2019-01-14T00:23:44.921Z,986.49
2019-01-14T00:24:48.241Z,986.66
2019-01-14T00:25:47.336Z,986.45
2019-01-14T00:26:47.190Z,986.54
2019-01-14T00:27:46.926Z,986.52
2019-01-14T00:29:03.253Z,986.64
2019-01-14T00:29:51.941Z,986.58
2019-01-14T00:30:46.742Z,986.62
2019-01-14T00:31:44.865Z,986.65
2019-01-14T00:32:54.454Z,986.61
2019-01-14T00:33:47.446Z,986.65
2019-01-14T00:34:44.892Z,986.68
2019-01-14T00:36:07.763Z,986.78
2019-01-14T00:36:44.857Z,986.73
2019-01-14T00:37:50.447Z,986.81
2019-01-14T00:38:46.741Z,986.84
2019-01-14T00:39:44.752Z,986.80
2019-01-14T00:40:48.500Z,987.02
2019-01-14T00:41:55.326Z,986.95
2019-01-14T00:42:44.787Z,986.89
2019-01-14T00:43:47.462Z,986.91
2019-01-14T00:44:44.751Z,986.94
2019-01-14T00:45:44.704Z,986.98
2019-01-14T00:46:49.866Z,986.93
2019-01-14T00:47:44.677Z,986.89
2019-01-14T00:48:52.325Z,986.88
2019-01-14T00:49:45.716Z,986.92
2019-01-14T00:50:46.261Z,986.87
2019-01-14T00:51:48.832Z,986.93
2019-01-14T00:52:46.245Z,986.82
2019-01-14T00:53:50.058Z,986.95
2019-01-14T00:54:47.336Z,987.06
2019-01-14T00:55:44.613Z,987.07
2019-01-14T00:56:56.131Z,987.03
2019-01-14T00:57:47.261Z,987.15
2019-01-14T00:58:46.306Z,987.14
2019-01-14T01:00:10.389Z,987.13
2019-01-14T01:00:49.211Z,987.09
2019-01-14T01:01:49.444Z,987.15
2019-01-14T01:02:48.471Z,987.18
2019-01-14T01:03:47.268Z,987.24
2019-01-14T01:05:00.375Z,987.25
2019-01-14T01:05:45.477Z,987.29
2019-01-14T01:06:51.834Z,987.25
2019-01-14T01:07:47.448Z,987.32
2019-01-14T01:08:52.566Z,987.39
2019-01-14T01:09:45.594Z,987.37
2019-01-14T01:10:49.493Z,987.36
2019-01-14T01:11:54.262Z,987.39
2019-01-14T01:12:49.449Z,987.35
2019-01-14T01:13:47.255Z,987.36
2019-01-14T01:14:51.542Z,987.41
2019-01-14T01:16:01.365Z,987.45
2019-01-14T01:16:52.721Z,987.40
2019-01-14T01:18:01.310Z,987.46
2019-01-14T01:18:49.657Z,987.49
2019-01-14T01:19:44.907Z,987.48
2019-01-14T01:20:52.352Z,987.55
2019-01-14T01:21:50.615Z,987.53
2019-01-14T01:22:45.318Z,987.57
2019-01-14T01:23:48.463Z,987.58
2019-01-14T01:24:45.673Z,987.58
2019-01-14T01:25:49.232Z,987.68
2019-01-14T01:26:47.390Z,987.60
2019-01-14T01:27:47.742Z,987.69
2019-01-14T01:28:47.790Z,987.64
2019-01-14T01:29:45.617Z,987.67
2019-01-14T01:30:48.327Z,987.59
2019-01-14T01:31:46.576Z,987.77
2019-01-14T01:32:44.473Z,987.71
2019-01-14T01:33:46.193Z,987.64
2019-01-14T01:34:47.326Z,987.75
2019-01-14T01:35:44.361Z,987.69
2019-01-14T01:36:44.243Z,987.76
2019-01-14T01:37:46.611Z,987.77
2019-01-14T01:38:44.316Z,987.75
2019-01-14T01:39:45.750Z,987.76
2019-01-14T01:40:55.425Z,987.78
2019-01-14T01:41:59.478Z,987.82
2019-01-14T01:42:45.550Z,987.79
2019-01-14T01:43:44.544Z,987.88
2019-01-14T01:44:52.045Z,987.90
2019-01-14T01:45:46.649Z,987.97
2019-01-14T01:46:52.000Z,987.98
2019-01-14T01:47:48.563Z,988.02
2019-01-14T01:48:45.428Z,988.00
2019-01-14T01:50:04.354Z,988.12
2019-01-14T01:50:45.798Z,988.15
2019-01-14T01:51:44.813Z,988.22
2019-01-14T01:52:53.548Z,988.27
2019-01-14T01:53:45.177Z,988.33
2019-01-14T01:54:46.996Z,988.38
2019-01-14T01:55:48.529Z,988.38
2019-01-14T01:56:45.524Z,988.40
2019-01-14T01:57:47.769Z,988.30
2019-01-14T01:58:46.828Z,988.33
2019-01-14T01:59:45.358Z,988.35
2019-01-14T02:01:05.133Z,988.41
2019-01-14T02:02:02.892Z,988.37
2019-01-14T02:02:52.466Z,988.45
2019-01-14T02:03:46.839Z,988.43
2019-01-14T02:04:45.317Z,988.42
2019-01-14T02:05:45.817Z,988.46
2019-01-14T02:06:58.702Z,988.40
2019-01-14T02:07:48.069Z,988.51
2019-01-14T02:08:49.244Z,988.51
2019-01-14T02:09:44.940Z,988.48
2019-01-14T02:10:47.768Z,988.60
2019-01-14T02:11:46.516Z,988.54
2019-01-14T02:12:48.495Z,988.54
2019-01-14T02:13:46.766Z,988.56
2019-01-14T02:14:45.861Z,988.67
2019-01-14T02:15:46.682Z,988.67
2019-01-14T02:16:48.309Z,988.76
2019-01-14T02:17:48.518Z,988.75
2019-01-14T02:18:43.740Z,988.89
2019-01-14T02:19:48.216Z,988.86
2019-01-14T02:20:53.389Z,988.89
2019-01-14T02:21:43.801Z,988.87
2019-01-14T02:22:47.500Z,988.94
2019-01-14T02:23:52.101Z,988.98
2019-01-14T02:24:51.496Z,989.01
2019-01-14T02:35:06.861Z,989.21
2019-01-14T02:36:08.089Z,989.33
2019-01-14T02:37:09.823Z,989.40
2019-01-14T02:38:06.278Z,989.35
2019-01-14T02:39:09.524Z,989.39
2019-01-14T02:40:07.510Z,989.34
2019-01-14T02:41:11.915Z,989.43
2019-01-14T02:42:18.510Z,989.47
2019-01-14T02:43:09.250Z,989.47
2019-01-14T02:44:06.514Z,989.46
2019-01-14T02:45:09.059Z,989.50
2019-01-14T02:46:08.200Z,989.45
2019-01-14T02:47:07.846Z,989.44
2019-01-14T02:48:10.417Z,989.49
2019-01-14T02:49:07.931Z,989.40
2019-01-14T02:50:15.082Z,989.51
2019-01-14T02:51:07.152Z,989.51
2019-01-14T02:52:07.987Z,989.48
2019-01-14T02:53:07.959Z,989.52
2019-01-14T02:54:07.970Z,989.46
2019-01-14T02:55:09.165Z,989.62
2019-01-14T02:56:08.190Z,989.57
2019-01-14T02:57:14.339Z,989.68
2019-01-14T02:58:13.401Z,989.66
2019-01-14T02:59:07.391Z,989.69
2019-01-14T03:00:06.815Z,989.57
2019-01-14T03:01:09.550Z,989.61
2019-01-14T03:02:12.836Z,989.69
2019-01-14T03:03:09.125Z,989.66
2019-01-14T03:04:07.557Z,989.65
2019-01-14T03:05:06.431Z,989.66
2019-01-14T03:06:08.917Z,989.76
2019-01-14T03:07:08.796Z,989.69
2019-01-14T03:08:09.108Z,989.83
2019-01-14T03:09:07.489Z,989.88
2019-01-14T03:10:07.815Z,989.80
2019-01-14T03:11:11.360Z,989.79
2019-01-14T03:12:10.802Z,989.81
2019-01-14T03:13:07.847Z,989.78
2019-01-14T03:15:23.951Z,989.76
2019-01-14T03:16:24.452Z,989.88
2019-01-14T03:17:25.718Z,989.76
2019-01-14T03:18:27.371Z,989.84
2019-01-14T03:19:25.691Z,989.80
2019-01-14T03:20:25.731Z,989.78
2019-01-14T03:21:34.544Z,989.74
2019-01-14T03:22:31.282Z,989.85
2019-01-14T03:23:31.298Z,989.88
2019-01-14T03:24:25.512Z,989.91
2019-01-14T03:25:25.503Z,989.92
2019-01-14T03:26:25.670Z,989.84
2019-01-14T03:27:25.531Z,989.92
2019-01-14T03:28:31.245Z,989.83
2019-01-14T03:30:52.382Z,989.94
2019-01-14T03:31:53.855Z,989.86
2019-01-14T03:32:53.728Z,990.08
2019-01-14T03:33:54.238Z,989.87
2019-01-14T03:34:54.340Z,989.93
2019-01-14T03:35:54.010Z,989.96
2019-01-14T03:36:53.540Z,989.97
2019-01-14T03:37:55.400Z,990.05
2019-01-14T03:38:53.554Z,989.98
2019-01-14T03:39:59.504Z,989.96
2019-01-14T03:42:08.231Z,989.94
2019-01-14T03:43:10.166Z,990.02
2019-01-14T03:44:09.650Z,989.95
2019-01-14T03:45:15.046Z,990.00
2019-01-14T03:47:20.852Z,989.97
2019-01-14T03:48:22.396Z,990.02
2019-01-14T03:50:32.970Z,990.14
2019-01-14T03:57:55.638Z,990.20
2019-01-14T03:58:57.778Z,990.32
2019-01-14T03:59:56.667Z,990.23
2019-01-14T04:00:56.814Z,990.24
2019-01-14T04:01:54.901Z,990.26
2019-01-14T04:02:56.652Z,990.35
2019-01-14T04:03:56.624Z,990.34
2019-01-14T04:04:56.809Z,990.32
2019-01-14T04:05:58.162Z,990.35
2019-01-14T04:06:56.608Z,990.34
2019-01-14T04:07:57.194Z,990.35
2019-01-14T04:08:56.687Z,990.40
2019-01-14T04:09:56.630Z,990.34
2019-01-14T04:10:56.647Z,990.38
2019-01-14T04:11:56.688Z,990.36
2019-01-14T04:12:55.838Z,990.36
2019-01-14T04:13:57.114Z,990.33
2019-01-14T04:14:57.633Z,990.43
2019-01-14T04:15:55.076Z,990.33
2019-01-14T04:16:57.837Z,990.37
2019-01-14T04:18:10.308Z,990.62
2019-01-14T04:18:57.902Z,990.38
2019-01-14T04:19:56.553Z,990.43
2019-01-14T04:20:56.619Z,990.55
2019-01-14T04:21:56.293Z,990.46
2019-01-14T04:22:56.374Z,990.52
2019-01-14T04:23:56.107Z,990.47
2019-01-14T04:24:56.122Z,990.49
2019-01-14T04:25:56.102Z,990.44
2019-01-14T04:26:56.116Z,990.37
2019-01-14T04:27:56.137Z,990.45
2019-01-14T04:28:56.137Z,990.36
2019-01-14T04:29:56.115Z,990.41
2019-01-14T04:30:56.107Z,990.37
2019-01-14T04:31:56.142Z,990.46
2019-01-14T04:32:56.203Z,990.44
2019-01-14T04:34:03.295Z,990.43
2019-01-14T04:34:56.285Z,990.50
2019-01-14T04:35:56.798Z,990.55
2019-01-14T04:38:05.078Z,990.56
2019-01-14T04:39:06.564Z,990.64
2019-01-14T04:40:08.471Z,990.57
2019-01-14T04:41:06.474Z,990.65
2019-01-14T04:42:06.391Z,990.63
2019-01-14T04:43:06.387Z,990.63
2019-01-14T04:44:06.456Z,990.59
2019-01-14T04:45:06.382Z,990.61
2019-01-14T04:46:06.381Z,990.66
2019-01-14T04:47:06.449Z,990.65
2019-01-14T04:48:06.395Z,990.66
2019-01-14T04:49:06.387Z,990.64
2019-01-14T04:50:06.388Z,990.58
2019-01-14T04:51:06.375Z,990.66
2019-01-14T04:52:06.406Z,990.59
2019-01-14T04:54:15.010Z,990.64
2019-01-14T04:55:16.663Z,990.71
2019-01-14T04:56:16.591Z,990.72
2019-01-14T04:57:16.661Z,990.80
2019-01-14T04:58:16.521Z,990.83
2019-01-14T04:59:16.505Z,990.84
2019-01-14T05:00:16.535Z,990.87
2019-01-14T05:01:16.532Z,990.85
2019-01-14T05:02:16.518Z,990.81
2019-01-14T05:03:16.517Z,990.81
2019-01-14T05:04:16.527Z,990.83
2019-01-14T05:05:16.531Z,990.89
2019-01-14T05:06:16.512Z,990.88
2019-01-14T05:07:16.497Z,990.85
2019-01-14T05:08:16.517Z,990.91
2019-01-14T05:09:17.522Z,990.87
2019-01-14T05:10:16.516Z,990.90
2019-01-14T05:11:16.516Z,990.90
2019-01-14T05:12:16.541Z,990.97
2019-01-14T05:13:16.541Z,991.01
2019-01-14T05:14:16.521Z,990.91
2019-01-14T05:15:16.524Z,990.89
2019-01-14T05:16:14.591Z,990.95
2019-01-14T05:17:16.525Z,990.95
2019-01-14T05:18:16.579Z,990.96
2019-01-14T05:19:16.528Z,990.94
2019-01-14T05:20:16.517Z,990.97
2019-01-14T05:21:16.517Z,990.95
2019-01-14T05:22:14.567Z,991.02
2019-01-14T05:23:16.507Z,990.98
2019-01-14T05:24:15.507Z,991.03
2019-01-14T05:25:16.007Z,991.01
2019-01-14T05:26:16.032Z,991.00
2019-01-14T05:27:16.013Z,991.08
2019-01-14T05:28:16.028Z,991.08
2019-01-14T05:29:15.987Z,991.09
2019-01-14T05:30:15.998Z,991.11
2019-01-14T05:31:16.003Z,991.14
2019-01-14T05:32:16.034Z,991.16
2019-01-14T05:33:16.010Z,991.14
2019-01-14T05:34:16.002Z,991.25
2019-01-14T05:35:16.022Z,991.26
2019-01-14T05:36:16.015Z,991.29
2019-01-14T05:37:16.032Z,991.31
2019-01-14T05:38:23.234Z,991.34
2019-01-14T05:39:16.125Z,991.34
2019-01-14T05:40:16.119Z,991.31
2019-01-14T05:41:16.274Z,991.38
2019-01-14T05:42:16.049Z,991.38
2019-01-14T05:43:16.065Z,991.36
2019-01-14T05:44:16.044Z,991.33
2019-01-14T05:45:16.038Z,991.39
2019-01-14T05:46:16.069Z,991.44
2019-01-14T05:47:16.029Z,991.33
2019-01-14T05:48:16.080Z,991.43
2019-01-14T05:49:16.069Z,991.48
2019-01-14T05:50:21.934Z,991.46
2019-01-14T05:52:35.617Z,991.50
2019-01-14T05:53:37.276Z,991.47
2019-01-14T05:54:37.249Z,991.54
2019-01-14T05:55:43.095Z,991.52
2019-01-14T05:56:37.294Z,991.48
2019-01-14T05:57:36.864Z,991.61
2019-01-14T05:58:37.243Z,991.47
2019-01-14T05:59:43.108Z,991.48
2019-01-14T06:00:37.288Z,991.58
2019-01-14T06:02:45.700Z,991.49
2019-01-14T06:03:45.619Z,991.56
2019-01-14T06:04:53.223Z,991.56
2019-01-14T06:05:47.581Z,991.58
2019-01-14T06:06:47.417Z,991.61
2019-01-14T06:07:47.468Z,991.65
2019-01-14T06:08:47.300Z,991.65
2019-01-14T06:11:03.074Z,991.71
2019-01-14T06:12:04.882Z,991.74
2019-01-14T06:13:11.927Z,991.68
2019-01-14T06:14:04.798Z,991.70
2019-01-14T06:15:04.773Z,991.75
2019-01-14T06:16:10.702Z,991.77
2019-01-14T06:17:04.954Z,991.78
2019-01-14T06:18:04.881Z,991.85
2019-01-14T06:19:04.907Z,991.95
2019-01-14T06:20:04.754Z,991.86
2019-01-14T06:21:02.919Z,991.91
2019-01-14T06:22:04.732Z,991.92
2019-01-14T06:23:04.757Z,991.95
2019-01-14T06:24:04.775Z,991.92
2019-01-14T06:25:04.770Z,991.89
2019-01-14T06:26:04.751Z,991.96
2019-01-14T06:27:04.767Z,991.95
2019-01-14T06:28:12.889Z,991.91
2019-01-14T06:29:05.267Z,991.93
2019-01-14T06:30:04.378Z,992.02
2019-01-14T06:31:04.435Z,991.97
2019-01-14T06:32:04.301Z,991.99
2019-01-14T06:33:04.290Z,991.91
2019-01-14T06:34:04.325Z,992.04
2019-01-14T06:35:04.283Z,991.98
2019-01-14T06:36:04.281Z,991.97
2019-01-14T06:37:11.400Z,992.07
2019-01-14T06:38:04.473Z,992.09
2019-01-14T06:39:04.460Z,992.07
2019-01-14T06:40:04.410Z,992.03
2019-01-14T06:41:05.432Z,992.06
2019-01-14T06:42:10.355Z,992.10
2019-01-14T06:43:04.516Z,992.23
2019-01-14T06:44:04.525Z,992.19
2019-01-14T06:45:04.494Z,992.17
2019-01-14T06:46:04.345Z,992.10
2019-01-14T06:47:04.376Z,992.19
2019-01-14T06:48:13.039Z,992.15
2019-01-14T06:49:04.502Z,992.18
2019-01-14T06:50:10.263Z,992.11
2019-01-14T06:51:04.510Z,992.18
2019-01-14T06:52:04.469Z,992.10
2019-01-14T06:53:04.626Z,992.06
2019-01-14T06:54:04.414Z,992.04
2019-01-14T06:55:04.435Z,992.17
2019-01-14T06:56:02.513Z,992.09
2019-01-14T06:57:04.419Z,992.10
2019-01-14T06:58:11.578Z,992.17
2019-01-14T06:59:04.497Z,992.16
2019-01-14T07:00:04.592Z,992.19
2019-01-14T07:01:04.509Z,992.19
2019-01-14T07:02:04.123Z,992.25
2019-01-14T07:03:03.983Z,992.27
2019-01-14T07:04:03.953Z,992.41
2019-01-14T07:05:10.071Z,992.39
2019-01-14T07:06:10.109Z,992.54
2019-01-14T07:07:04.127Z,992.51
2019-01-14T07:08:11.217Z,992.48
2019-01-14T07:09:10.125Z,992.49
2019-01-14T07:10:04.206Z,992.59
2019-01-14T07:11:10.037Z,992.55
2019-01-14T07:12:04.207Z,992.66
2019-01-14T07:13:04.236Z,992.66
2019-01-14T07:14:04.178Z,992.73
2019-01-14T07:15:04.194Z,992.77
2019-01-14T07:16:04.260Z,992.86
2019-01-14T07:17:04.121Z,992.87
2019-01-14T07:18:04.164Z,992.85
2019-01-14T07:19:04.129Z,992.86
2019-01-14T07:20:04.122Z,992.88
2019-01-14T07:21:09.925Z,992.92
2019-01-14T07:22:04.242Z,992.89
2019-01-14T07:23:11.316Z,993.00
2019-01-14T07:24:04.229Z,992.96
2019-01-14T07:25:09.869Z,992.99
2019-01-14T07:26:10.884Z,993.09
2019-01-14T07:28:12.483Z,993.03
2019-01-14T07:29:14.172Z,993.04
2019-01-14T07:31:22.761Z,993.13
2019-01-14T07:32:24.404Z,993.12
2019-01-14T07:34:32.938Z,993.13
2019-01-14T07:36:42.155Z,993.11
2019-01-14T07:38:51.433Z,993.19
2019-01-14T07:41:02.593Z,993.14
2019-01-14T07:42:04.242Z,993.18
2019-01-14T07:43:03.303Z,993.21
2019-01-14T07:44:04.405Z,993.25
2019-01-14T07:45:10.175Z,993.31
2019-01-14T07:46:10.175Z,993.30
2019-01-14T07:47:04.403Z,993.30
2019-01-14T07:48:11.504Z,993.27
2019-01-14T07:49:02.481Z,993.35
2019-01-14T07:50:04.368Z,993.29
2019-01-14T07:51:10.091Z,993.32
2019-01-14T07:52:10.109Z,993.30
2019-01-14T07:53:12.077Z,993.31
2019-01-14T07:54:10.115Z,993.36
2019-01-14T07:55:10.039Z,993.35
2019-01-14T07:56:10.040Z,993.40
2019-01-14T07:57:10.039Z,993.40
2019-01-14T07:58:11.238Z,993.42
2019-01-14T07:59:04.213Z,993.48
2019-01-14T08:00:04.199Z,993.43
2019-01-14T08:01:09.991Z,993.48
2019-01-14T08:02:09.974Z,993.46
2019-01-14T08:03:12.363Z,993.52
2019-01-14T08:04:04.243Z,993.55
2019-01-14T08:05:09.978Z,993.64
2019-01-14T08:06:09.998Z,993.60
2019-01-14T08:07:03.951Z,993.65
2019-01-14T08:08:14.218Z,993.55
2019-01-14T08:09:03.876Z,993.68
2019-01-14T08:10:03.867Z,993.61
2019-01-14T08:11:09.896Z,993.65
2019-01-14T08:12:09.890Z,993.71
2019-01-14T08:13:11.060Z,993.60
2019-01-14T08:15:12.470Z,993.65
2019-01-14T08:17:21.731Z,993.61
2019-01-14T08:18:23.400Z,993.65
2019-01-14T08:19:23.675Z,993.65
2019-01-14T08:20:29.275Z,993.66
2019-01-14T08:21:23.469Z,993.70
2019-01-14T08:22:31.538Z,993.73
2019-01-14T08:23:29.258Z,993.76
2019-01-14T08:24:29.256Z,993.73
2019-01-14T08:25:29.275Z,993.74
2019-01-14T08:26:23.621Z,993.84
2019-01-14T08:28:31.865Z,993.83
2019-01-14T08:30:41.091Z,993.90
2019-01-14T08:32:50.347Z,993.93
2019-01-14T08:35:00.510Z,994.05
2019-01-14T08:36:02.197Z,994.02
2019-01-14T08:38:10.812Z,994.15
2019-01-14T08:39:12.434Z,994.10
2019-01-14T08:40:18.318Z,994.26
2019-01-14T08:41:12.466Z,994.14
2019-01-14T08:43:20.945Z,994.23
2019-01-14T08:45:30.314Z,994.29
2019-01-14T08:47:40.345Z,994.24
2019-01-14T08:48:48.677Z,994.25
2019-01-14T08:49:43.001Z,994.21
2019-01-14T08:50:41.985Z,994.30
2019-01-14T08:51:42.011Z,994.36
2019-01-14T08:52:41.991Z,994.28
2019-01-14T08:53:40.243Z,994.43
2019-01-14T08:54:41.975Z,994.39
2019-01-14T08:55:41.996Z,994.50
2019-01-14T08:56:42.121Z,994.61
2019-01-14T08:57:42.024Z,994.53
2019-01-14T08:58:42.248Z,994.60
2019-01-14T08:59:42.052Z,994.53
2019-01-14T09:00:41.984Z,994.45
2019-01-14T09:01:41.124Z,994.38
2019-01-14T09:02:42.006Z,994.40
2019-01-14T09:03:42.010Z,994.40
2019-01-14T09:04:42.000Z,994.42
2019-01-14T09:05:41.992Z,994.35
2019-01-14T09:06:47.725Z,994.41
2019-01-14T09:07:42.092Z,994.40
2019-01-14T09:08:47.655Z,994.44
2019-01-14T09:09:41.692Z,994.44
2019-01-14T09:10:47.616Z,994.45
2019-01-14T09:11:41.709Z,994.42
2019-01-14T09:12:48.751Z,994.45
2019-01-14T09:13:41.713Z,994.42
2019-01-14T09:14:47.586Z,994.39
2019-01-14T09:15:47.606Z,994.44
2019-01-14T09:16:47.621Z,994.41
2019-01-14T09:17:41.863Z,994.31
2019-01-14T09:19:50.329Z,994.44
2019-01-14T09:20:51.913Z,994.46
2019-01-14T09:21:51.923Z,994.49
2019-01-14T09:22:51.912Z,994.45
2019-01-14T09:23:57.774Z,994.56
2019-01-14T09:24:57.757Z,994.49
2019-01-14T09:25:57.728Z,994.54
2019-01-14T09:26:52.034Z,994.67
2019-01-14T09:27:50.699Z,994.66
2019-01-14T09:28:52.016Z,994.69
2019-01-14T09:29:51.994Z,994.61
2019-01-14T09:30:51.996Z,994.62
2019-01-14T09:31:52.006Z,994.60
2019-01-14T09:32:52.027Z,994.53
2019-01-14T09:33:50.069Z,994.60
2019-01-14T09:34:52.020Z,994.60
2019-01-14T09:35:52.042Z,994.74
2019-01-14T09:36:52.014Z,994.64
2019-01-14T09:37:52.018Z,994.64
2019-01-14T09:38:52.012Z,994.67
2019-01-14T09:39:51.521Z,994.62
2019-01-14T09:40:51.502Z,994.60
2019-01-14T09:41:51.519Z,994.64
2019-01-14T09:42:51.527Z,994.55
2019-01-14T09:43:51.495Z,994.65
2019-01-14T09:44:57.674Z,994.72
2019-01-14T09:47:01.328Z,994.78
2019-01-14T09:48:02.966Z,994.75
2019-01-14T09:49:02.888Z,994.76
2019-01-14T09:50:02.858Z,994.73
2019-01-14T09:51:02.884Z,994.74
2019-01-14T09:52:02.996Z,994.80
2019-01-14T09:53:02.973Z,994.83
2019-01-14T09:54:08.868Z,994.79
2019-01-14T09:55:09.818Z,994.78
2019-01-14T09:56:02.137Z,994.81
2019-01-14T09:57:02.969Z,994.92
2019-01-14T09:58:02.948Z,994.94
2019-01-14T09:59:08.750Z,994.84
2019-01-14T10:01:11.305Z,994.95
2019-01-14T10:02:11.304Z,994.95
2019-01-14T10:03:13.056Z,994.99
2019-01-14T10:04:13.008Z,994.89
2019-01-14T10:05:13.010Z,994.94
2019-01-14T10:06:13.031Z,994.92
2019-01-14T10:07:13.058Z,995.03
2019-01-14T10:08:13.040Z,994.92
2019-01-14T10:10:21.436Z,995.02
2019-01-14T10:11:23.120Z,995.15
2019-01-14T10:12:23.141Z,995.05
2019-01-14T10:13:23.119Z,995.12
2019-01-14T10:14:23.136Z,995.10
2019-01-14T10:15:23.173Z,995.12
2019-01-14T10:16:23.132Z,995.11
2019-01-14T10:17:23.131Z,995.10
2019-01-14T10:18:23.174Z,995.05
2019-01-14T10:19:23.151Z,995.08
2019-01-14T10:20:23.131Z,995.11
2019-01-14T10:21:23.168Z,995.05
2019-01-14T10:22:23.131Z,995.12
2019-01-14T10:23:23.165Z,995.12
2019-01-14T10:24:23.158Z,995.07
2019-01-14T10:25:23.137Z,995.07
2019-01-14T10:26:23.133Z,995.14
2019-01-14T10:27:23.132Z,995.13
2019-01-14T10:28:23.140Z,995.16
2019-01-14T10:29:23.131Z,995.12
2019-01-14T10:30:23.172Z,995.15
2019-01-14T10:31:23.133Z,995.13
2019-01-14T10:32:23.130Z,995.19
2019-01-14T10:33:23.140Z,995.31
2019-01-14T10:34:23.141Z,995.33
2019-01-14T10:35:23.129Z,995.19
2019-01-14T10:36:21.179Z,995.43
2019-01-14T10:37:23.130Z,995.24
2019-01-14T10:38:22.634Z,995.26
2019-01-14T10:39:22.629Z,995.24
2019-01-14T10:40:22.635Z,995.26
2019-01-14T10:41:22.637Z,995.29
2019-01-14T10:42:22.821Z,995.17
2019-01-14T10:43:22.636Z,995.25
2019-01-14T10:44:22.636Z,995.31
2019-01-14T10:45:22.647Z,995.30
2019-01-14T10:46:22.619Z,995.24
2019-01-14T10:47:22.639Z,995.33
2019-01-14T10:48:22.669Z,995.16
2019-01-14T10:49:22.634Z,995.18
2019-01-14T10:50:22.627Z,995.23
2019-01-14T10:51:22.629Z,995.31
2019-01-14T10:52:22.627Z,995.41
2019-01-14T10:53:22.645Z,995.35
2019-01-14T10:54:22.654Z,995.30
2019-01-14T10:55:22.630Z,995.31
2019-01-14T10:56:22.616Z,995.29
2019-01-14T10:57:22.617Z,995.23
2019-01-14T10:58:22.635Z,995.26
2019-01-14T10:59:20.915Z,995.17
2019-01-14T11:00:22.661Z,995.24
2019-01-14T11:01:22.618Z,995.29
2019-01-14T11:02:22.682Z,995.34
2019-01-14T11:03:22.630Z,995.30
2019-01-14T11:04:22.644Z,995.32
2019-01-14T11:05:22.631Z,995.34
2019-01-14T11:06:22.665Z,995.34
2019-01-14T11:07:22.625Z,995.38
2019-01-14T11:08:22.626Z,995.50
2019-01-14T11:09:22.640Z,995.44
2019-01-14T11:10:22.617Z,995.45
2019-01-14T11:11:22.640Z,995.31
2019-01-14T11:12:22.658Z,995.51
2019-01-14T11:13:22.628Z,995.45
2019-01-14T11:14:22.641Z,995.38
2019-01-14T11:15:22.618Z,995.38
2019-01-14T11:16:22.629Z,995.37
2019-01-14T11:17:22.618Z,995.37
2019-01-14T11:18:22.655Z,995.33
2019-01-14T11:19:22.660Z,995.47
2019-01-14T11:20:22.625Z,995.38
2019-01-14T11:21:22.628Z,995.39
2019-01-14T11:22:22.943Z,995.45
2019-01-14T11:23:22.630Z,995.62
2019-01-14T11:24:22.661Z,995.64
2019-01-14T11:25:22.648Z,995.44
2019-01-14T11:26:21.638Z,995.62
2019-01-14T11:27:22.153Z,995.48
2019-01-14T11:28:20.639Z,995.60
2019-01-14T11:29:22.148Z,995.71
2019-01-14T11:30:22.360Z,995.66
2019-01-14T11:31:22.136Z,995.75
2019-01-14T11:32:22.168Z,995.91
2019-01-14T11:33:22.215Z,995.93
2019-01-14T11:34:22.199Z,995.85
2019-01-14T11:35:22.210Z,995.97
2019-01-14T11:36:22.245Z,995.90
2019-01-14T11:37:22.158Z,995.90
2019-01-14T11:38:22.188Z,996.02
2019-01-14T11:39:22.153Z,995.93
2019-01-14T11:40:22.149Z,995.99
2019-01-14T11:41:22.144Z,996.10
2019-01-14T11:42:22.144Z,995.93
2019-01-14T11:43:22.347Z,996.13
2019-01-14T11:44:22.143Z,996.18
2019-01-14T11:45:22.137Z,996.17
2019-01-14T11:46:22.141Z,996.00
2019-01-14T11:47:22.213Z,996.17
2019-01-14T11:48:22.170Z,995.94
2019-01-14T11:49:22.146Z,995.96
2019-01-14T11:50:22.161Z,996.03
2019-01-14T11:51:22.167Z,995.93
2019-01-14T11:52:22.159Z,995.93
2019-01-14T11:53:22.132Z,996.07
2019-01-14T11:54:22.205Z,996.03
2019-01-14T11:55:22.264Z,995.94
2019-01-14T11:56:22.347Z,995.97
2019-01-14T11:57:20.332Z,995.98
2019-01-14T11:58:22.311Z,996.02
2019-01-14T11:59:22.158Z,995.92
2019-01-14T12:00:22.142Z,995.93
2019-01-14T12:01:22.166Z,995.95
2019-01-14T12:02:22.117Z,995.98
2019-01-14T12:03:20.289Z,995.89
2019-01-14T12:04:22.173Z,995.98
2019-01-14T12:05:22.134Z,995.87
2019-01-14T12:06:22.122Z,995.76
2019-01-14T12:07:22.136Z,995.80
2019-01-14T12:08:22.142Z,995.88
2019-01-14T12:09:22.169Z,995.95
2019-01-14T12:10:22.139Z,995.86
2019-01-14T12:11:22.133Z,995.93
2019-01-14T12:12:22.122Z,995.97
2019-01-14T12:13:22.149Z,995.86
2019-01-14T12:14:22.128Z,995.93
2019-01-14T12:15:21.668Z,995.88
2019-01-14T12:16:21.628Z,995.91
2019-01-14T12:17:21.627Z,996.01
2019-01-14T12:18:21.629Z,995.87
2019-01-14T12:19:28.714Z,995.97
2019-01-14T12:20:21.846Z,996.05
2019-01-14T12:21:28.740Z,995.99
